sensor_id;sensor_type;location;lat;lon;timestamp;P1;durP1;ratioP1;P2;durP2;ratioP2
23119;SDS011;11729;50.836;4.330;2023-05-10T00:01:59;4.07;;;3.88;;
23119;SDS011;11729;50.836;4.330;2023-05-10T00:04:25;4.30;;;4.10;;
23119;SDS011;11729;50.836;4.330;2023-05-10T00:06:53;4.30;;;4.10;;
23119;SDS011;11729;50.836;4.330;2023-05-10T00:09:19;4.57;;;4.38;;
23119;SDS011;11729;50.836;4.330;2023-05-10T00:11:45;4.50;;;4.30;;
23119;SDS011;11729;50.836;4.330;2023-05-10T00:14:11;4.28;;;4.07;;
23119;SDS011;11729;50.836;4.330;2023-05-10T00:16:36;4.45;;;4.25;;
23119;SDS011;11729;50.836;4.330;2023-05-10T00:19:02;10.57;;;4.95;;
23119;SDS011;11729;50.836;4.330;2023-05-10T00:21:28;4.13;;;3.92;;
23119;SDS011;11729;50.836;4.330;2023-05-10T00:23:56;4.30;;;4.10;;
23119;SDS011;11729;50.836;4.330;2023-05-10T00:26:22;4.93;;;4.63;;
23119;SDS011;11729;50.836;4.330;2023-05-10T00:28:47;4.57;;;4.38;;
23119;SDS011;11729;50.836;4.330;2023-05-10T00:31:13;4.30;;;4.10;;
23119;SDS011;11729;50.836;4.330;2023-05-10T00:33:39;4.97;;;4.68;;
23119;SDS011;11729;50.836;4.330;2023-05-10T00:36:05;4.25;;;4.05;;
23119;SDS011;11729;50.836;4.330;2023-05-10T00:38:32;4.10;;;3.90;;
23119;SDS011;11729;50.836;4.330;2023-05-10T00:40:58;4.22;;;4.03;;
23119;SDS011;11729;50.836;4.330;2023-05-10T00:43:24;4.30;;;4.10;;
23119;SDS011;11729;50.836;4.330;2023-05-10T00:45:49;4.10;;;3.90;;
23119;SDS011;11729;50.836;4.330;2023-05-10T00:48:15;4.20;;;4.00;;
23119;SDS011;11729;50.836;4.330;2023-05-10T00:50:41;4.30;;;4.10;;
23119;SDS011;11729;50.836;4.330;2023-05-10T00:53:07;4.13;;;3.92;;
23119;SDS011;11729;50.836;4.330;2023-05-10T00:55:33;5.65;;;5.28;;
23119;SDS011;11729;50.836;4.330;2023-05-10T00:57:59;4.10;;;3.90;;
23119;SDS011;11729;50.836;4.330;2023-05-10T01:00:24;4.72;;;4.53;;
23119;SDS011;11729;50.836;4.330;2023-05-10T01:02:50;4.20;;;4.00;;
23119;SDS011;11729;50.836;4.330;2023-05-10T01:05:18;4.50;;;4.30;;
23119;SDS011;11729;50.836;4.330;2023-05-10T01:07:44;4.30;;;4.10;;
23119;SDS011;11729;50.836;4.330;2023-05-10T01:10:10;4.40;;;4.20;;
23119;SDS011;11729;50.836;4.330;2023-05-10T01:12:37;4.30;;;4.10;;
23119;SDS011;11729;50.836;4.330;2023-05-10T01:15:05;4.50;;;4.30;;
23119;SDS011;11729;50.836;4.330;2023-05-10T01:17:32;4.30;;;4.10;;
23119;SDS011;11729;50.836;4.330;2023-05-10T01:20:00;4.40;;;4.20;;
23119;SDS011;11729;50.836;4.330;2023-05-10T01:34:54;4.10;;;3.90;;
23119;SDS011;11729;50.836;4.330;2023-05-10T01:37:28;4.80;;;4.50;;
23119;SDS011;11729;50.836;4.330;2023-05-10T01:40:21;4.22;;;4.03;;
23119;SDS011;11729;50.836;4.330;2023-05-10T01:43:01;4.30;;;4.10;;
23119;SDS011;11729;50.836;4.330;2023-05-10T01:48:25;4.25;;;4.05;;
23119;SDS011;11729;50.836;4.330;2023-05-10T01:50:53;4.60;;;4.40;;
23119;SDS011;11729;50.836;4.330;2023-05-10T01:53:21;4.75;;;4.55;;
23119;SDS011;11729;50.836;4.330;2023-05-10T01:55:49;4.80;;;4.50;;
23119;SDS011;11729;50.836;4.330;2023-05-10T01:58:25;4.50;;;4.30;;
23119;SDS011;11729;50.836;4.330;2023-05-10T02:00:54;4.40;;;4.20;;
23119;SDS011;11729;50.836;4.330;2023-05-10T02:03:23;4.30;;;4.10;;
23119;SDS011;11729;50.836;4.330;2023-05-10T02:05:52;4.50;;;4.30;;
23119;SDS011;11729;50.836;4.330;2023-05-10T02:10:46;4.47;;;4.28;;
23119;SDS011;11729;50.836;4.330;2023-05-10T02:13:15;4.30;;;4.10;;
23119;SDS011;11729;50.836;4.330;2023-05-10T02:15:41;4.28;;;4.07;;
23119;SDS011;11729;50.836;4.330;2023-05-10T02:18:09;4.70;;;4.50;;
23119;SDS011;11729;50.836;4.330;2023-05-10T02:20:36;5.70;;;5.32;;
23119;SDS011;11729;50.836;4.330;2023-05-10T02:23:03;4.13;;;3.92;;
23119;SDS011;11729;50.836;4.330;2023-05-10T02:25:29;4.20;;;4.00;;
23119;SDS011;11729;50.836;4.330;2023-05-10T02:27:56;5.43;;;5.13;;
23119;SDS011;11729;50.836;4.330;2023-05-10T02:30:25;4.30;;;4.10;;
23119;SDS011;11729;50.836;4.330;2023-05-10T02:32:52;4.30;;;4.10;;
23119;SDS011;11729;50.836;4.330;2023-05-10T02:35:18;4.55;;;4.35;;
23119;SDS011;11729;50.836;4.330;2023-05-10T02:37:45;4.22;;;4.03;;
23119;SDS011;11729;50.836;4.330;2023-05-10T02:40:12;8.07;;;5.57;;
23119;SDS011;11729;50.836;4.330;2023-05-10T02:42:40;4.30;;;4.10;;
23119;SDS011;11729;50.836;4.330;2023-05-10T02:45:08;4.50;;;4.30;;
23119;SDS011;11729;50.836;4.330;2023-05-10T02:47:37;4.20;;;4.00;;
23119;SDS011;11729;50.836;4.330;2023-05-10T02:50:03;4.45;;;4.25;;
23119;SDS011;11729;50.836;4.330;2023-05-10T02:52:29;4.18;;;3.97;;
23119;SDS011;11729;50.836;4.330;2023-05-10T02:55:02;4.22;;;4.03;;
23119;SDS011;11729;50.836;4.330;2023-05-10T02:57:31;4.20;;;4.00;;
23119;SDS011;11729;50.836;4.330;2023-05-10T02:59:58;4.30;;;4.10;;
23119;SDS011;11729;50.836;4.330;2023-05-10T03:02:25;4.40;;;4.20;;
23119;SDS011;11729;50.836;4.330;2023-05-10T03:04:51;4.35;;;4.15;;
23119;SDS011;11729;50.836;4.330;2023-05-10T03:07:17;4.22;;;4.03;;
23119;SDS011;11729;50.836;4.330;2023-05-10T03:09:44;8.20;;;6.13;;
23119;SDS011;11729;50.836;4.330;2023-05-10T03:18:23;5.20;;;4.85;;
23119;SDS011;11729;50.836;4.330;2023-05-10T03:20:42;4.30;;;4.10;;
23119;SDS011;11729;50.836;4.330;2023-05-10T03:23:21;4.13;;;3.92;;
23119;SDS011;11729;50.836;4.330;2023-05-10T03:25:55;4.40;;;4.20;;
23119;SDS011;11729;50.836;4.330;2023-05-10T03:28:21;4.30;;;4.10;;
23119;SDS011;11729;50.836;4.330;2023-05-10T03:30:49;4.82;;;4.43;;
23119;SDS011;11729;50.836;4.330;2023-05-10T03:35:44;4.40;;;4.20;;
23119;SDS011;11729;50.836;4.330;2023-05-10T03:38:11;5.18;;;4.97;;
23119;SDS011;11729;50.836;4.330;2023-05-10T03:40:37;4.00;;;3.80;;
23119;SDS011;11729;50.836;4.330;2023-05-10T03:43:03;4.10;;;3.90;;
23119;SDS011;11729;50.836;4.330;2023-05-10T03:45:29;4.10;;;3.90;;
23119;SDS011;11729;50.836;4.330;2023-05-10T03:47:57;4.10;;;3.90;;
23119;SDS011;11729;50.836;4.330;2023-05-10T03:50:24;3.97;;;3.78;;
23119;SDS011;11729;50.836;4.330;2023-05-10T03:52:51;4.20;;;4.00;;
23119;SDS011;11729;50.836;4.330;2023-05-10T03:55:16;4.30;;;4.10;;
23119;SDS011;11729;50.836;4.330;2023-05-10T03:57:42;6.63;;;6.15;;
23119;SDS011;11729;50.836;4.330;2023-05-10T04:00:08;4.40;;;4.20;;
23119;SDS011;11729;50.836;4.330;2023-05-10T04:02:34;4.18;;;3.97;;
23119;SDS011;11729;50.836;4.330;2023-05-10T04:05:00;4.20;;;4.00;;
23119;SDS011;11729;50.836;4.330;2023-05-10T04:07:26;4.10;;;3.90;;
23119;SDS011;11729;50.836;4.330;2023-05-10T04:09:52;4.13;;;3.92;;
23119;SDS011;11729;50.836;4.330;2023-05-10T04:12:17;4.53;;;4.32;;
23119;SDS011;11729;50.836;4.330;2023-05-10T04:14:43;4.20;;;4.00;;
23119;SDS011;11729;50.836;4.330;2023-05-10T04:17:09;4.40;;;4.20;;
23119;SDS011;11729;50.836;4.330;2023-05-10T04:19:35;4.38;;;4.18;;
23119;SDS011;11729;50.836;4.330;2023-05-10T04:22:01;4.70;;;4.50;;
23119;SDS011;11729;50.836;4.330;2023-05-10T04:24:28;5.63;;;5.22;;
23119;SDS011;11729;50.836;4.330;2023-05-10T04:26:54;4.20;;;4.00;;
23119;SDS011;11729;50.836;4.330;2023-05-10T04:29:20;4.10;;;3.90;;
23119;SDS011;11729;50.836;4.330;2023-05-10T04:31:46;4.55;;;4.35;;
23119;SDS011;11729;50.836;4.330;2023-05-10T04:34:11;4.07;;;3.90;;
23119;SDS011;11729;50.836;4.330;2023-05-10T04:36:38;4.50;;;4.30;;
23119;SDS011;11729;50.836;4.330;2023-05-10T04:39:04;4.88;;;4.57;;
23119;SDS011;11729;50.836;4.330;2023-05-10T04:41:29;4.53;;;4.32;;
23119;SDS011;11729;50.836;4.330;2023-05-10T04:43:55;4.07;;;3.88;;
23119;SDS011;11729;50.836;4.330;2023-05-10T04:46:21;4.30;;;4.10;;
23119;SDS011;11729;50.836;4.330;2023-05-10T04:48:47;4.85;;;4.65;;
23119;SDS011;11729;50.836;4.330;2023-05-10T04:51:12;4.60;;;4.40;;
23119;SDS011;11729;50.836;4.330;2023-05-10T04:53:38;4.57;;;4.38;;
23119;SDS011;11729;50.836;4.330;2023-05-10T04:56:04;5.13;;;4.78;;
23119;SDS011;11729;50.836;4.330;2023-05-10T04:58:30;4.28;;;4.07;;
23119;SDS011;11729;50.836;4.330;2023-05-10T05:00:56;4.68;;;4.47;;
23119;SDS011;11729;50.836;4.330;2023-05-10T05:03:21;4.30;;;4.10;;
23119;SDS011;11729;50.836;4.330;2023-05-10T05:05:47;4.10;;;3.90;;
23119;SDS011;11729;50.836;4.330;2023-05-10T05:08:14;4.10;;;3.90;;
23119;SDS011;11729;50.836;4.330;2023-05-10T05:10:41;4.20;;;4.00;;
23119;SDS011;11729;50.836;4.330;2023-05-10T05:13:06;4.35;;;4.15;;
23119;SDS011;11729;50.836;4.330;2023-05-10T05:15:33;4.20;;;4.00;;
23119;SDS011;11729;50.836;4.330;2023-05-10T05:17:59;22.52;;;5.68;;
23119;SDS011;11729;50.836;4.330;2023-05-10T05:20:24;4.47;;;4.28;;
23119;SDS011;11729;50.836;4.330;2023-05-10T05:22:50;4.20;;;4.00;;
23119;SDS011;11729;50.836;4.330;2023-05-10T05:25:15;4.80;;;4.60;;
23119;SDS011;11729;50.836;4.330;2023-05-10T05:27:41;4.30;;;4.10;;
23119;SDS011;11729;50.836;4.330;2023-05-10T05:30:07;4.20;;;4.00;;
23119;SDS011;11729;50.836;4.330;2023-05-10T05:32:33;4.30;;;4.10;;
23119;SDS011;11729;50.836;4.330;2023-05-10T05:34:58;4.32;;;4.13;;
23119;SDS011;11729;50.836;4.330;2023-05-10T05:37:24;4.50;;;4.30;;
23119;SDS011;11729;50.836;4.330;2023-05-10T05:39:50;4.35;;;4.15;;
23119;SDS011;11729;50.836;4.330;2023-05-10T05:42:16;4.20;;;4.00;;
23119;SDS011;11729;50.836;4.330;2023-05-10T05:44:43;4.10;;;3.90;;
23119;SDS011;11729;50.836;4.330;2023-05-10T05:47:09;4.00;;;3.80;;
23119;SDS011;11729;50.836;4.330;2023-05-10T05:49:35;4.20;;;4.00;;
23119;SDS011;11729;50.836;4.330;2023-05-10T05:52:01;4.95;;;4.65;;
23119;SDS011;11729;50.836;4.330;2023-05-10T05:54:29;4.22;;;4.03;;
23119;SDS011;11729;50.836;4.330;2023-05-10T05:56:56;4.20;;;4.00;;
23119;SDS011;11729;50.836;4.330;2023-05-10T05:59:22;5.00;;;4.80;;
23119;SDS011;11729;50.836;4.330;2023-05-10T06:01:47;8.50;;;6.07;;
23119;SDS011;11729;50.836;4.330;2023-05-10T06:04:13;4.25;;;4.05;;
23119;SDS011;11729;50.836;4.330;2023-05-10T06:06:39;4.40;;;4.20;;
23119;SDS011;11729;50.836;4.330;2023-05-10T06:09:05;4.25;;;4.05;;
23119;SDS011;11729;50.836;4.330;2023-05-10T06:11:30;4.43;;;4.22;;
23119;SDS011;11729;50.836;4.330;2023-05-10T06:13:59;4.18;;;3.97;;
23119;SDS011;11729;50.836;4.330;2023-05-10T06:16:26;4.60;;;4.40;;
23119;SDS011;11729;50.836;4.330;2023-05-10T06:18:52;4.40;;;4.20;;
23119;SDS011;11729;50.836;4.330;2023-05-10T06:21:18;4.63;;;4.43;;
23119;SDS011;11729;50.836;4.330;2023-05-10T06:23:44;4.30;;;4.10;;
23119;SDS011;11729;50.836;4.330;2023-05-10T06:26:10;4.10;;;3.90;;
23119;SDS011;11729;50.836;4.330;2023-05-10T06:28:36;4.35;;;4.15;;
23119;SDS011;11729;50.836;4.330;2023-05-10T06:31:04;4.75;;;4.53;;
23119;SDS011;11729;50.836;4.330;2023-05-10T06:33:30;4.15;;;3.95;;
23119;SDS011;11729;50.836;4.330;2023-05-10T06:35:56;4.13;;;3.92;;
23119;SDS011;11729;50.836;4.330;2023-05-10T06:38:22;4.10;;;3.90;;
23119;SDS011;11729;50.836;4.330;2023-05-10T06:40:48;4.10;;;3.90;;
23119;SDS011;11729;50.836;4.330;2023-05-10T06:43:13;4.60;;;4.40;;
23119;SDS011;11729;50.836;4.330;2023-05-10T06:45:39;4.38;;;4.18;;
23119;SDS011;11729;50.836;4.330;2023-05-10T06:48:05;4.60;;;4.40;;
23119;SDS011;11729;50.836;4.330;2023-05-10T06:50:32;4.60;;;4.40;;
23119;SDS011;11729;50.836;4.330;2023-05-10T06:52:58;4.20;;;4.00;;
23119;SDS011;11729;50.836;4.330;2023-05-10T06:55:24;4.20;;;4.00;;
23119;SDS011;11729;50.836;4.330;2023-05-10T06:57:51;4.30;;;4.10;;
23119;SDS011;11729;50.836;4.330;2023-05-10T07:00:18;4.90;;;4.70;;
23119;SDS011;11729;50.836;4.330;2023-05-10T07:02:44;4.20;;;4.00;;
23119;SDS011;11729;50.836;4.330;2023-05-10T07:05:10;4.47;;;4.28;;
23119;SDS011;11729;50.836;4.330;2023-05-10T07:07:37;4.30;;;4.10;;
23119;SDS011;11729;50.836;4.330;2023-05-10T07:10:03;4.22;;;4.03;;
23119;SDS011;11729;50.836;4.330;2023-05-10T07:12:30;4.20;;;4.00;;
23119;SDS011;11729;50.836;4.330;2023-05-10T07:14:55;4.63;;;4.43;;
23119;SDS011;11729;50.836;4.330;2023-05-10T07:17:21;4.30;;;4.10;;
23119;SDS011;11729;50.836;4.330;2023-05-10T07:19:47;4.82;;;4.63;;
23119;SDS011;11729;50.836;4.330;2023-05-10T07:22:13;4.40;;;4.20;;
23119;SDS011;11729;50.836;4.330;2023-05-10T07:24:40;4.30;;;4.10;;
23119;SDS011;11729;50.836;4.330;2023-05-10T07:27:05;4.90;;;4.63;;
23119;SDS011;11729;50.836;4.330;2023-05-10T07:29:31;4.25;;;4.05;;
23119;SDS011;11729;50.836;4.330;2023-05-10T07:31:57;4.40;;;4.20;;
23119;SDS011;11729;50.836;4.330;2023-05-10T07:34:23;4.45;;;4.25;;
23119;SDS011;11729;50.836;4.330;2023-05-10T07:36:48;4.80;;;4.60;;
23119;SDS011;11729;50.836;4.330;2023-05-10T07:39:14;4.30;;;4.10;;
23119;SDS011;11729;50.836;4.330;2023-05-10T07:41:40;4.25;;;4.05;;
23119;SDS011;11729;50.836;4.330;2023-05-10T07:44:06;4.30;;;4.10;;
23119;SDS011;11729;50.836;4.330;2023-05-10T07:46:31;4.65;;;4.45;;
23119;SDS011;11729;50.836;4.330;2023-05-10T07:48:57;4.20;;;4.00;;
23119;SDS011;11729;50.836;4.330;2023-05-10T07:51:22;4.40;;;4.20;;
23119;SDS011;11729;50.836;4.330;2023-05-10T07:53:48;4.50;;;4.30;;
23119;SDS011;11729;50.836;4.330;2023-05-10T07:58:45;5.93;;;5.63;;
23119;SDS011;11729;50.836;4.330;2023-05-10T08:01:11;4.38;;;4.18;;
23119;SDS011;11729;50.836;4.330;2023-05-10T08:03:36;4.40;;;4.20;;
23119;SDS011;11729;50.836;4.330;2023-05-10T08:06:02;4.80;;;4.60;;
23119;SDS011;11729;50.836;4.330;2023-05-10T08:08:28;4.65;;;4.45;;
23119;SDS011;11729;50.836;4.330;2023-05-10T08:10:54;5.50;;;5.22;;
23119;SDS011;11729;50.836;4.330;2023-05-10T08:13:19;4.72;;;4.53;;
23119;SDS011;11729;50.836;4.330;2023-05-10T08:15:46;4.68;;;4.47;;
23119;SDS011;11729;50.836;4.330;2023-05-10T08:18:13;5.00;;;4.70;;
23119;SDS011;11729;50.836;4.330;2023-05-10T08:20:39;4.20;;;4.00;;
23119;SDS011;11729;50.836;4.330;2023-05-10T08:23:04;4.35;;;4.15;;
23119;SDS011;11729;50.836;4.330;2023-05-10T08:25:32;4.20;;;4.00;;
23119;SDS011;11729;50.836;4.330;2023-05-10T08:27:58;4.30;;;4.10;;
23119;SDS011;11729;50.836;4.330;2023-05-10T08:30:23;4.43;;;4.22;;
23119;SDS011;11729;50.836;4.330;2023-05-10T08:32:49;4.00;;;3.80;;
23119;SDS011;11729;50.836;4.330;2023-05-10T08:35:15;4.13;;;3.92;;
23119;SDS011;11729;50.836;4.330;2023-05-10T08:37:41;4.10;;;3.90;;
23119;SDS011;11729;50.836;4.330;2023-05-10T08:40:06;4.10;;;3.90;;
23119;SDS011;11729;50.836;4.330;2023-05-10T08:42:36;4.00;;;3.80;;
23119;SDS011;11729;50.836;4.330;2023-05-10T08:45:07;4.05;;;3.85;;
23119;SDS011;11729;50.836;4.330;2023-05-10T08:47:34;4.10;;;3.90;;
23119;SDS011;11729;50.836;4.330;2023-05-10T08:50:03;4.03;;;3.83;;
23119;SDS011;11729;50.836;4.330;2023-05-10T08:52:29;4.22;;;4.03;;
23119;SDS011;11729;50.836;4.330;2023-05-10T08:54:57;4.63;;;4.43;;
23119;SDS011;11729;50.836;4.330;2023-05-10T08:57:26;4.20;;;4.00;;
23119;SDS011;11729;50.836;4.330;2023-05-10T08:59:53;4.00;;;3.80;;
23119;SDS011;11729;50.836;4.330;2023-05-10T09:02:18;4.10;;;3.90;;
23119;SDS011;11729;50.836;4.330;2023-05-10T09:04:46;4.20;;;4.00;;
23119;SDS011;11729;50.836;4.330;2023-05-10T09:07:11;4.93;;;4.63;;
23119;SDS011;11729;50.836;4.330;2023-05-10T09:09:37;4.10;;;3.90;;
23119;SDS011;11729;50.836;4.330;2023-05-10T09:12:03;4.10;;;3.90;;
23119;SDS011;11729;50.836;4.330;2023-05-10T09:14:29;4.47;;;4.28;;
23119;SDS011;11729;50.836;4.330;2023-05-10T09:16:59;4.38;;;4.18;;
23119;SDS011;11729;50.836;4.330;2023-05-10T09:19:25;3.90;;;3.70;;
23119;SDS011;11729;50.836;4.330;2023-05-10T09:21:50;4.05;;;3.85;;
23119;SDS011;11729;50.836;4.330;2023-05-10T09:24:16;4.13;;;3.92;;
23119;SDS011;11729;50.836;4.330;2023-05-10T09:26:48;4.00;;;3.80;;
23119;SDS011;11729;50.836;4.330;2023-05-10T09:29:14;4.13;;;3.92;;
23119;SDS011;11729;50.836;4.330;2023-05-10T09:31:52;4.28;;;4.07;;
23119;SDS011;11729;50.836;4.330;2023-05-10T09:34:21;4.20;;;4.00;;
23119;SDS011;11729;50.836;4.330;2023-05-10T09:36:58;4.38;;;4.18;;
23119;SDS011;11729;50.836;4.330;2023-05-10T09:39:35;4.20;;;4.00;;
23119;SDS011;11729;50.836;4.330;2023-05-10T09:42:08;4.30;;;4.10;;
23119;SDS011;11729;50.836;4.330;2023-05-10T09:44:34;4.15;;;3.95;;
23119;SDS011;11729;50.836;4.330;2023-05-10T09:47:00;4.00;;;3.80;;
23119;SDS011;11729;50.836;4.330;2023-05-10T09:49:27;4.10;;;3.90;;
23119;SDS011;11729;50.836;4.330;2023-05-10T09:52:26;4.13;;;3.92;;
23119;SDS011;11729;50.836;4.330;2023-05-10T09:54:52;4.28;;;4.07;;
23119;SDS011;11729;50.836;4.330;2023-05-10T09:57:22;4.10;;;3.90;;
23119;SDS011;11729;50.836;4.330;2023-05-10T09:59:49;4.20;;;4.00;;
23119;SDS011;11729;50.836;4.330;2023-05-10T10:02:15;4.30;;;4.10;;
23119;SDS011;11729;50.836;4.330;2023-05-10T10:04:41;6.60;;;4.35;;
23119;SDS011;11729;50.836;4.330;2023-05-10T10:07:08;4.30;;;4.10;;
23119;SDS011;11729;50.836;4.330;2023-05-10T10:09:34;4.07;;;3.88;;
23119;SDS011;11729;50.836;4.330;2023-05-10T10:12:01;4.40;;;4.20;;
23119;SDS011;11729;50.836;4.330;2023-05-10T10:14:28;4.32;;;4.13;;
23119;SDS011;11729;50.836;4.330;2023-05-10T10:16:54;4.20;;;4.00;;
23119;SDS011;11729;50.836;4.330;2023-05-10T10:19:20;4.93;;;4.72;;
23119;SDS011;11729;50.836;4.330;2023-05-10T10:21:47;4.15;;;3.95;;
23119;SDS011;11729;50.836;4.330;2023-05-10T10:24:14;4.63;;;4.43;;
23119;SDS011;11729;50.836;4.330;2023-05-10T10:26:40;4.22;;;4.03;;
23119;SDS011;11729;50.836;4.330;2023-05-10T10:34:26;4.30;;;4.10;;
23119;SDS011;11729;50.836;4.330;2023-05-10T10:36:53;4.22;;;4.03;;
23119;SDS011;11729;50.836;4.330;2023-05-10T10:39:19;4.43;;;4.22;;
23119;SDS011;11729;50.836;4.330;2023-05-10T10:41:53;4.65;;;4.45;;
23119;SDS011;11729;50.836;4.330;2023-05-10T10:52:27;4.20;;;4.00;;
23119;SDS011;11729;50.836;4.330;2023-05-10T11:03:05;4.13;;;3.92;;
23119;SDS011;11729;50.836;4.330;2023-05-10T11:08:16;4.35;;;4.15;;
23119;SDS011;11729;50.836;4.330;2023-05-10T11:11:01;4.47;;;4.28;;
23119;SDS011;11729;50.836;4.330;2023-05-10T11:13:32;4.10;;;3.90;;
23119;SDS011;11729;50.836;4.330;2023-05-10T11:16:22;4.10;;;3.90;;
23119;SDS011;11729;50.836;4.330;2023-05-10T11:18:53;4.00;;;3.80;;
23119;SDS011;11729;50.836;4.330;2023-05-10T11:21:23;4.53;;;4.32;;
23119;SDS011;11729;50.836;4.330;2023-05-10T11:23:56;4.10;;;3.90;;
23119;SDS011;11729;50.836;4.330;2023-05-10T11:26:23;4.05;;;3.85;;
23119;SDS011;11729;50.836;4.330;2023-05-10T11:28:52;4.10;;;3.90;;
23119;SDS011;11729;50.836;4.330;2023-05-10T11:31:22;4.70;;;4.50;;
23119;SDS011;11729;50.836;4.330;2023-05-10T11:33:51;4.18;;;3.97;;
23119;SDS011;11729;50.836;4.330;2023-05-10T11:36:26;5.10;;;4.70;;
23119;SDS011;11729;50.836;4.330;2023-05-10T11:38:54;4.38;;;4.18;;
23119;SDS011;11729;50.836;4.330;2023-05-10T11:41:21;6.30;;;5.25;;
23119;SDS011;11729;50.836;4.330;2023-05-10T11:43:49;5.85;;;4.60;;
23119;SDS011;11729;50.836;4.330;2023-05-10T11:46:17;4.20;;;4.00;;
23119;SDS011;11729;50.836;4.330;2023-05-10T11:48:45;12.63;;;10.00;;
23119;SDS011;11729;50.836;4.330;2023-05-10T11:51:19;11.07;;;9.98;;
23119;SDS011;11729;50.836;4.330;2023-05-10T11:53:49;12.60;;;9.07;;
23119;SDS011;11729;50.836;4.330;2023-05-10T11:56:17;9.70;;;8.77;;
23119;SDS011;11729;50.836;4.330;2023-05-10T11:58:43;12.25;;;9.70;;
23119;SDS011;11729;50.836;4.330;2023-05-10T12:01:08;10.57;;;9.50;;
23119;SDS011;11729;50.836;4.330;2023-05-10T12:03:35;9.50;;;8.60;;
23119;SDS011;11729;50.836;4.330;2023-05-10T12:06:01;9.85;;;8.95;;
23119;SDS011;11729;50.836;4.330;2023-05-10T12:08:29;9.18;;;8.30;;
23119;SDS011;11729;50.836;4.330;2023-05-10T12:11:08;8.57;;;7.78;;
23119;SDS011;11729;50.836;4.330;2023-05-10T12:13:37;9.80;;;8.77;;
23119;SDS011;11729;50.836;4.330;2023-05-10T12:18:52;14.38;;;9.43;;
23119;SDS011;11729;50.836;4.330;2023-05-10T12:21:22;13.70;;;9.10;;
23119;SDS011;11729;50.836;4.330;2023-05-10T12:23:49;10.32;;;9.23;;
23119;SDS011;11729;50.836;4.330;2023-05-10T12:26:16;10.50;;;9.43;;
23119;SDS011;11729;50.836;4.330;2023-05-10T12:28:42;10.63;;;9.57;;
23119;SDS011;11729;50.836;4.330;2023-05-10T12:31:08;10.43;;;9.48;;
23119;SDS011;11729;50.836;4.330;2023-05-10T12:33:37;10.45;;;9.35;;
23119;SDS011;11729;50.836;4.330;2023-05-10T12:36:04;9.95;;;8.95;;
23119;SDS011;11729;50.836;4.330;2023-05-10T12:38:34;9.98;;;8.98;;
23119;SDS011;11729;50.836;4.330;2023-05-10T12:41:03;9.60;;;8.68;;
23119;SDS011;11729;50.836;4.330;2023-05-10T12:43:30;9.83;;;8.83;;
23119;SDS011;11729;50.836;4.330;2023-05-10T12:45:56;9.85;;;8.00;;
23119;SDS011;11729;50.836;4.330;2023-05-10T12:48:22;9.70;;;7.32;;
23119;SDS011;11729;50.836;4.330;2023-05-10T12:50:49;8.13;;;7.33;;
23119;SDS011;11729;50.836;4.330;2023-05-10T12:53:15;7.88;;;7.25;;
23119;SDS011;11729;50.836;4.330;2023-05-10T12:55:42;8.25;;;7.45;;
23119;SDS011;11729;50.836;4.330;2023-05-10T12:58:08;8.48;;;7.65;;
23119;SDS011;11729;50.836;4.330;2023-05-10T13:00:34;8.35;;;7.50;;
23119;SDS011;11729;50.836;4.330;2023-05-10T13:02:59;8.43;;;7.22;;
23119;SDS011;11729;50.836;4.330;2023-05-10T13:05:25;8.00;;;7.20;;
23119;SDS011;11729;50.836;4.330;2023-05-10T13:07:51;7.57;;;6.93;;
23119;SDS011;11729;50.836;4.330;2023-05-10T13:10:16;7.45;;;6.65;;
23119;SDS011;11729;50.836;4.330;2023-05-10T13:12:42;9.00;;;8.07;;
23119;SDS011;11729;50.836;4.330;2023-05-10T13:15:08;8.80;;;7.97;;
23119;SDS011;11729;50.836;4.330;2023-05-10T13:17:34;10.85;;;7.75;;
23119;SDS011;11729;50.836;4.330;2023-05-10T13:19:59;7.97;;;7.20;;
23119;SDS011;11729;50.836;4.330;2023-05-10T13:22:25;10.75;;;8.95;;
23119;SDS011;11729;50.836;4.330;2023-05-10T13:24:51;8.25;;;7.38;;
23119;SDS011;11729;50.836;4.330;2023-05-10T13:27:16;9.40;;;8.50;;
23119;SDS011;11729;50.836;4.330;2023-05-10T13:29:42;9.20;;;8.25;;
23119;SDS011;11729;50.836;4.330;2023-05-10T13:32:08;8.75;;;8.05;;
23119;SDS011;11729;50.836;4.330;2023-05-10T13:34:33;8.50;;;7.70;;
23119;SDS011;11729;50.836;4.330;2023-05-10T13:37:00;8.50;;;7.63;;
23119;SDS011;11729;50.836;4.330;2023-05-10T13:39:26;8.95;;;8.02;;
23119;SDS011;11729;50.836;4.330;2023-05-10T13:41:52;9.35;;;8.27;;
23119;SDS011;11729;50.836;4.330;2023-05-10T13:44:19;10.90;;;8.35;;
23119;SDS011;11729;50.836;4.330;2023-05-10T13:46:46;10.32;;;8.52;;
23119;SDS011;11729;50.836;4.330;2023-05-10T13:49:12;10.50;;;9.50;;
23119;SDS011;11729;50.836;4.330;2023-05-10T13:51:38;11.25;;;10.20;;
23119;SDS011;11729;50.836;4.330;2023-05-10T13:54:03;11.02;;;9.93;;
23119;SDS011;11729;50.836;4.330;2023-05-10T13:56:29;13.95;;;10.63;;
23119;SDS011;11729;50.836;4.330;2023-05-10T13:58:58;15.20;;;11.75;;
23119;SDS011;11729;50.836;4.330;2023-05-10T14:01:24;12.23;;;11.07;;
23119;SDS011;11729;50.836;4.330;2023-05-10T14:03:51;14.10;;;11.45;;
23119;SDS011;11729;50.836;4.330;2023-05-10T14:06:16;12.70;;;11.25;;
23119;SDS011;11729;50.836;4.330;2023-05-10T14:08:42;14.23;;;12.77;;
23119;SDS011;11729;50.836;4.330;2023-05-10T14:11:08;15.98;;;12.55;;
23119;SDS011;11729;50.836;4.330;2023-05-10T14:13:34;14.40;;;12.38;;
23119;SDS011;11729;50.836;4.330;2023-05-10T14:15:59;14.18;;;12.48;;
23119;SDS011;11729;50.836;4.330;2023-05-10T14:18:28;14.95;;;12.40;;
23119;SDS011;11729;50.836;4.330;2023-05-10T14:20:53;17.77;;;13.55;;
23119;SDS011;11729;50.836;4.330;2023-05-10T14:23:21;14.20;;;12.80;;
23119;SDS011;11729;50.836;4.330;2023-05-10T14:25:51;14.68;;;13.18;;
23119;SDS011;11729;50.836;4.330;2023-05-10T14:28:17;13.32;;;11.93;;
23119;SDS011;11729;50.836;4.330;2023-05-10T14:30:43;15.52;;;11.35;;
23119;SDS011;11729;50.836;4.330;2023-05-10T14:33:09;15.90;;;11.77;;
23119;SDS011;11729;50.836;4.330;2023-05-10T14:35:35;15.70;;;11.88;;
23119;SDS011;11729;50.836;4.330;2023-05-10T14:38:01;15.88;;;13.10;;
23119;SDS011;11729;50.836;4.330;2023-05-10T14:40:28;14.90;;;13.25;;
23119;SDS011;11729;50.836;4.330;2023-05-10T14:42:54;14.82;;;13.05;;
23119;SDS011;11729;50.836;4.330;2023-05-10T14:45:21;14.95;;;13.13;;
23119;SDS011;11729;50.836;4.330;2023-05-10T14:47:47;15.15;;;12.95;;
23119;SDS011;11729;50.836;4.330;2023-05-10T14:50:13;16.05;;;13.05;;
23119;SDS011;11729;50.836;4.330;2023-05-10T14:52:39;16.48;;;13.20;;
23119;SDS011;11729;50.836;4.330;2023-05-10T14:55:04;17.95;;;13.40;;
23119;SDS011;11729;50.836;4.330;2023-05-10T14:57:31;18.58;;;15.05;;
23119;SDS011;11729;50.836;4.330;2023-05-10T14:59:57;25.52;;;15.80;;
23119;SDS011;11729;50.836;4.330;2023-05-10T15:02:23;22.73;;;15.63;;
23119;SDS011;11729;50.836;4.330;2023-05-10T15:04:48;18.45;;;13.00;;
23119;SDS011;11729;50.836;4.330;2023-05-10T15:07:14;13.30;;;11.20;;
23119;SDS011;11729;50.836;4.330;2023-05-10T15:09:42;11.82;;;9.43;;
23119;SDS011;11729;50.836;4.330;2023-05-10T15:12:07;15.80;;;8.77;;
23119;SDS011;11729;50.836;4.330;2023-05-10T15:14:33;10.43;;;8.43;;
23119;SDS011;11729;50.836;4.330;2023-05-10T15:17:02;10.77;;;9.23;;
23119;SDS011;11729;50.836;4.330;2023-05-10T15:19:28;13.07;;;8.93;;
23119;SDS011;11729;50.836;4.330;2023-05-10T15:21:54;11.30;;;8.15;;
23119;SDS011;11729;50.836;4.330;2023-05-10T15:24:20;12.82;;;8.45;;
23119;SDS011;11729;50.836;4.330;2023-05-10T15:26:47;11.70;;;8.15;;
23119;SDS011;11729;50.836;4.330;2023-05-10T15:29:13;11.20;;;7.28;;
23119;SDS011;11729;50.836;4.330;2023-05-10T15:31:44;9.65;;;7.28;;
23119;SDS011;11729;50.836;4.330;2023-05-10T15:34:11;9.77;;;7.38;;
23119;SDS011;11729;50.836;4.330;2023-05-10T15:36:37;10.80;;;7.05;;
23119;SDS011;11729;50.836;4.330;2023-05-10T15:39:03;16.23;;;6.97;;